sensor_id;sensor_type;location;lat;lon;timestamp;P1;P2;P0
79038;PMS5003;68436;55.068;73.284;2024-01-10T00:02:05;17.00;13.00;8.00
79038;PMS5003;68436;55.068;73.284;2024-01-10T00:04:31;16.50;14.00;8.00
79038;PMS5003;68436;55.068;73.284;2024-01-10T00:07:05;18.00;15.00;8.67
79038;PMS5003;68436;55.068;73.284;2024-01-10T00:09:32;18.50;14.50;8.00
79038;PMS5003;68436;55.068;73.284;2024-01-10T00:12:05;16.33;13.67;9.00
79038;PMS5003;68436;55.068;73.284;2024-01-10T00:14:31;19.00;15.75;11.00
79038;PMS5003;68436;55.068;73.284;2024-01-10T00:17:05;20.00;16.67;10.00
79038;PMS5003;68436;55.068;73.284;2024-01-10T00:19:31;17.00;13.00;8.50
79038;PMS5003;68436;55.068;73.284;2024-01-10T00:22:05;22.33;20.00;12.33
79038;PMS5003;68436;55.068;73.284;2024-01-10T00:24:31;15.00;12.75;7.25
79038;PMS5003;68436;55.068;73.284;2024-01-10T00:27:05;18.00;15.00;8.00
79038;PMS5003;68436;55.068;73.284;2024-01-10T00:29:32;23.25;19.00;10.50
79038;PMS5003;68436;55.068;73.284;2024-01-10T00:32:05;22.00;17.33;12.00
79038;PMS5003;68436;55.068;73.284;2024-01-10T00:34:32;34.00;27.00;16.00
79038;PMS5003;68436;55.068;73.284;2024-01-10T00:37:05;22.00;17.33;11.00
79038;PMS5003;68436;55.068;73.284;2024-01-10T00:39:31;26.00;21.00;13.00
79038;PMS5003;68436;55.068;73.284;2024-01-10T00:42:05;25.00;21.00;12.00
79038;PMS5003;68436;55.068;73.284;2024-01-10T00:44:31;19.67;17.00;10.00
79038;PMS5003;68436;55.068;73.284;2024-01-10T00:47:05;17.00;15.00;8.67
79038;PMS5003;68436;55.068;73.284;2024-01-10T00:49:31;19.00;16.00;10.00
79038;PMS5003;68436;55.068;73.284;2024-01-10T00:52:05;18.00;15.00;10.00
79038;PMS5003;68436;55.068;73.284;2024-01-10T00:54:31;24.00;20.00;11.00
79038;PMS5003;68436;55.068;73.284;2024-01-10T00:57:05;19.00;15.00;8.00
79038;PMS5003;68436;55.068;73.284;2024-01-10T00:59:31;23.00;19.00;12.00
79038;PMS5003;68436;55.068;73.284;2024-01-10T01:02:05;22.00;18.00;10.67
79038;PMS5003;68436;55.068;73.284;2024-01-10T01:04:31;24.00;18.00;10.00
79038;PMS5003;68436;55.068;73.284;2024-01-10T01:07:05;21.00;16.00;9.00
79038;PMS5003;68436;55.068;73.284;2024-01-10T01:09:31;22.00;17.00;9.00
79038;PMS5003;68436;55.068;73.284;2024-01-10T01:12:05;20.00;16.00;9.00
79038;PMS5003;68436;55.068;73.284;2024-01-10T01:14:42;33.00;26.00;16.00
79038;PMS5003;68436;55.068;73.284;2024-01-10T01:17:09;36.75;26.75;15.75
79038;PMS5003;68436;55.068;73.284;2024-01-10T01:19:35;27.00;21.75;12.00
79038;PMS5003;68436;55.068;73.284;2024-01-10T01:22:05;15.00;13.00;8.00
79038;PMS5003;68436;55.068;73.284;2024-01-10T01:24:31;28.75;22.00;13.00
79038;PMS5003;68436;55.068;73.284;2024-01-10T01:27:05;20.00;16.00;10.00
79038;PMS5003;68436;55.068;73.284;2024-01-10T01:29:31;14.75;12.00;7.00
79038;PMS5003;68436;55.068;73.284;2024-01-10T01:32:05;22.00;18.67;10.67
79038;PMS5003;68436;55.068;73.284;2024-01-10T01:34:31;20.50;17.50;11.00
79038;PMS5003;68436;55.068;73.284;2024-01-10T01:37:05;19.67;15.33;8.33
79038;PMS5003;68436;55.068;73.284;2024-01-10T01:39:31;29.00;20.50;12.00
79038;PMS5003;68436;55.068;73.284;2024-01-10T01:42:05;22.00;15.00;10.00
79038;PMS5003;68436;55.068;73.284;2024-01-10T01:44:31;20.00;16.00;9.00
79038;PMS5003;68436;55.068;73.284;2024-01-10T01:47:05;25.00;20.00;12.00
79038;PMS5003;68436;55.068;73.284;2024-01-10T01:49:32;35.25;28.00;17.00
79038;PMS5003;68436;55.068;73.284;2024-01-10T01:52:05;22.33;16.67;8.33
79038;PMS5003;68436;55.068;73.284;2024-01-10T01:54:32;17.50;15.50;10.50
79038;PMS5003;68436;55.068;73.284;2024-01-10T01:57:05;26.00;20.00;12.50
79038;PMS5003;68436;55.068;73.284;2024-01-10T01:59:31;28.75;23.75;13.00
79038;PMS5003;68436;55.068;73.284;2024-01-10T02:02:05;26.00;21.00;12.67
79038;PMS5003;68436;55.068;73.284;2024-01-10T02:04:32;26.75;19.75;11.00
79038;PMS5003;68436;55.068;73.284;2024-01-10T02:07:05;26.00;20.67;11.67
79038;PMS5003;68436;55.068;73.284;2024-01-10T02:09:31;28.25;22.50;12.50
79038;PMS5003;68436;55.068;73.284;2024-01-10T02:12:05;33.00;25.00;14.00
79038;PMS5003;68436;55.068;73.284;2024-01-10T02:14:31;34.00;26.00;15.00
79038;PMS5003;68436;55.068;73.284;2024-01-10T02:17:05;32.67;25.00;16.00
79038;PMS5003;68436;55.068;73.284;2024-01-10T02:19:37;30.00;23.75;12.00
79038;PMS5003;68436;55.068;73.284;2024-01-10T02:22:05;23.00;19.00;9.00
79038;PMS5003;68436;55.068;73.284;2024-01-10T02:24:31;22.25;17.00;10.00
79038;PMS5003;68436;55.068;73.284;2024-01-10T02:27:05;36.00;28.00;17.00
79038;PMS5003;68436;55.068;73.284;2024-01-10T02:29:31;16.00;13.00;7.00
79038;PMS5003;68436;55.068;73.284;2024-01-10T02:32:05;26.00;21.00;12.00
79038;PMS5003;68436;55.068;73.284;2024-01-10T02:34:31;30.50;22.50;11.75
79038;PMS5003;68436;55.068;73.284;2024-01-10T02:37:05;30.33;24.00;14.00
79038;PMS5003;68436;55.068;73.284;2024-01-10T02:39:31;28.50;23.00;15.00
79038;PMS5003;68436;55.068;73.284;2024-01-10T02:42:05;36.00;27.00;15.00
79038;PMS5003;68436;55.068;73.284;2024-01-10T02:44:31;27.50;21.75;12.75
79038;PMS5003;68436;55.068;73.284;2024-01-10T02:47:05;24.00;18.00;11.00
79038;PMS5003;68436;55.068;73.284;2024-01-10T02:49:32;24.75;19.00;11.75
79038;PMS5003;68436;55.068;73.284;2024-01-10T02:52:05;32.00;26.00;15.50
79038;PMS5003;68436;55.068;73.284;2024-01-10T02:54:31;20.50;17.00;12.00
79038;PMS5003;68436;55.068;73.284;2024-01-10T02:57:05;35.67;26.67;17.67
79038;PMS5003;68436;55.068;73.284;2024-01-10T02:59:31;32.00;24.00;14.25
79038;PMS5003;68436;55.068;73.284;2024-01-10T03:02:05;26.67;22.00;13.33
79038;PMS5003;68436;55.068;73.284;2024-01-10T03:04:31;35.75;28.50;17.75
79038;PMS5003;68436;55.068;73.284;2024-01-10T03:07:05;29.00;23.00;13.67
79038;PMS5003;68436;55.068;73.284;2024-01-10T03:09:31;41.00;31.00;18.00
79038;PMS5003;68436;55.068;73.284;2024-01-10T03:12:05;23.33;19.33;11.00
79038;PMS5003;68436;55.068;73.284;2024-01-10T03:14:32;29.00;23.00;13.00
79038;PMS5003;68436;55.068;73.284;2024-01-10T03:17:05;22.50;19.00;10.00
79038;PMS5003;68436;55.068;73.284;2024-01-10T03:19:31;28.00;23.00;13.00
79038;PMS5003;68436;55.068;73.284;2024-01-10T03:22:05;30.00;23.00;14.00
79038;PMS5003;68436;55.068;73.284;2024-01-10T03:24:31;28.50;22.50;13.50
79038;PMS5003;68436;55.068;73.284;2024-01-10T03:27:05;22.00;18.00;10.33
79038;PMS5003;68436;55.068;73.284;2024-01-10T03:29:32;27.25;21.75;12.50
79038;PMS5003;68436;55.068;73.284;2024-01-10T03:32:05;33.00;25.33;16.00
79038;PMS5003;68436;55.068;73.284;2024-01-10T03:34:32;27.00;21.50;13.00
79038;PMS5003;68436;55.068;73.284;2024-01-10T03:37:05;30.00;22.67;13.33
79038;PMS5003;68436;55.068;73.284;2024-01-10T03:39:31;32.00;26.00;16.00
79038;PMS5003;68436;55.068;73.284;2024-01-10T03:42:05;27.00;22.33;13.00
79038;PMS5003;68436;55.068;73.284;2024-01-10T03:44:31;30.50;24.00;14.25
79038;PMS5003;68436;55.068;73.284;2024-01-10T03:47:05;30.00;23.00;14.00
79038;PMS5003;68436;55.068;73.284;2024-01-10T03:49:31;25.75;21.00;12.00
79038;PMS5003;68436;55.068;73.284;2024-01-10T03:52:05;30.00;23.00;13.00
79038;PMS5003;68436;55.068;73.284;2024-01-10T03:54:31;31.50;24.75;14.00
79038;PMS5003;68436;55.068;73.284;2024-01-10T03:57:05;33.67;26.00;15.00
79038;PMS5003;68436;55.068;73.284;2024-01-10T03:59:31;21.75;18.50;10.75
79038;PMS5003;68436;55.068;73.284;2024-01-10T04:02:05;28.00;21.00;13.00
79038;PMS5003;68436;55.068;73.284;2024-01-10T04:04:31;24.00;19.00;11.00
79038;PMS5003;68436;55.068;73.284;2024-01-10T04:07:06;18.33;15.00;9.00
79038;PMS5003;68436;55.068;73.284;2024-01-10T04:09:32;19.00;14.75;7.75
79038;PMS5003;68436;55.068;73.284;2024-01-10T04:12:05;23.00;17.67;11.00
79038;PMS5003;68436;55.068;73.284;2024-01-10T04:14:31;21.00;17.00;9.00
79038;PMS5003;68436;55.068;73.284;2024-01-10T04:17:05;19.33;15.00;8.67
79038;PMS5003;68436;55.068;73.284;2024-01-10T04:19:32;17.00;13.00;7.25
79038;PMS5003;68436;55.068;73.284;2024-01-10T04:22:05;13.00;11.00;6.00
79038;PMS5003;68436;55.068;73.284;2024-01-10T04:24:31;17.50;14.50;9.25
79038;PMS5003;68436;55.068;73.284;2024-01-10T04:27:05;18.67;15.67;8.00
79038;PMS5003;68436;55.068;73.284;2024-01-10T04:29:31;13.50;10.25;7.00
79038;PMS5003;68436;55.068;73.284;2024-01-10T04:32:05;16.00;13.00;6.00
79038;PMS5003;68436;55.068;73.284;2024-01-10T04:34:31;13.75;11.00;7.00
79038;PMS5003;68436;55.068;73.284;2024-01-10T04:37:05;15.33;13.33;8.00
79038;PMS5003;68436;55.068;73.284;2024-01-10T04:39:34;15.50;11.50;6.25
79038;PMS5003;68436;55.068;73.284;2024-01-10T04:42:05;17.00;13.00;7.00
79038;PMS5003;68436;55.068;73.284;2024-01-10T04:44:31;14.00;11.00;7.00
79038;PMS5003;68436;55.068;73.284;2024-01-10T04:47:05;11.00;9.00;6.00
79038;PMS5003;68436;55.068;73.284;2024-01-10T04:49:31;8.00;7.00;4.00
79038;PMS5003;68436;55.068;73.284;2024-01-10T04:52:05;16.00;13.33;7.67
79038;PMS5003;68436;55.068;73.284;2024-01-10T04:54:31;15.00;12.00;7.00
79038;PMS5003;68436;55.068;73.284;2024-01-10T04:57:05;13.67;11.00;5.00
79038;PMS5003;68436;55.068;73.284;2024-01-10T04:59:31;13.25;10.00;7.00
79038;PMS5003;68436;55.068;73.284;2024-01-10T05:02:05;16.00;13.00;8.00
79038;PMS5003;68436;55.068;73.284;2024-01-10T05:04:31;12.25;10.75;7.00
79038;PMS5003;68436;55.068;73.284;2024-01-10T05:07:05;16.67;14.00;9.67
79038;PMS5003;68436;55.068;73.284;2024-01-10T05:09:31;19.00;16.25;11.00
79038;PMS5003;68436;55.068;73.284;2024-01-10T05:12:05;17.33;14.67;8.00
79038;PMS5003;68436;55.068;73.284;2024-01-10T05:14:31;11.00;9.25;5.00
79038;PMS5003;68436;55.068;73.284;2024-01-10T05:17:06;18.00;15.00;8.00
79038;PMS5003;68436;55.068;73.284;2024-01-10T05:19:32;9.00;8.00;6.00
79038;PMS5003;68436;55.068;73.284;2024-01-10T05:22:05;10.67;9.33;6.00
79038;PMS5003;68436;55.068;73.284;2024-01-10T05:24:31;11.25;9.50;6.00
79038;PMS5003;68436;55.068;73.284;2024-01-10T05:27:05;13.00;10.00;5.00
79038;PMS5003;68436;55.068;73.284;2024-01-10T05:29:41;13.25;9.25;5.00
79038;PMS5003;68436;55.068;73.284;2024-01-10T05:32:07;11.00;8.00;5.00
79038;PMS5003;68436;55.068;73.284;2024-01-10T05:34:33;10.50;9.00;5.00
79038;PMS5003;68436;55.068;73.284;2024-01-10T05:37:05;13.00;9.00;6.00
79038;PMS5003;68436;55.068;73.284;2024-01-10T05:39:31;13.75;11.50;7.00
79038;PMS5003;68436;55.068;73.284;2024-01-10T05:42:05;15.67;13.00;7.00
79038;PMS5003;68436;55.068;73.284;2024-01-10T05:44:32;8.00;6.50;4.00
79038;PMS5003;68436;55.068;73.284;2024-01-10T05:47:05;10.33;9.00;5.00
79038;PMS5003;68436;55.068;73.284;2024-01-10T05:49:31;7.75;6.25;4.00
79038;PMS5003;68436;55.068;73.284;2024-01-10T05:52:05;13.00;11.00;6.00
79038;PMS5003;68436;55.068;73.284;2024-01-10T05:54:31;12.75;10.25;5.50
79038;PMS5003;68436;55.068;73.284;2024-01-10T05:57:05;9.67;8.33;5.67
79038;PMS5003;68436;55.068;73.284;2024-01-10T05:59:32;10.00;9.50;6.00
79038;PMS5003;68436;55.068;73.284;2024-01-10T06:02:05;12.00;10.00;6.00
79038;PMS5003;68436;55.068;73.284;2024-01-10T06:04:31;15.50;13.00;7.00
79038;PMS5003;68436;55.068;73.284;2024-01-10T06:07:05;13.00;10.67;6.00
79038;PMS5003;68436;55.068;73.284;2024-01-10T06:09:31;11.00;9.50;6.25
79038;PMS5003;68436;55.068;73.284;2024-01-10T06:12:05;13.33;11.33;7.00
79038;PMS5003;68436;55.068;73.284;2024-01-10T06:14:32;12.50;9.50;5.50
79038;PMS5003;68436;55.068;73.284;2024-01-10T06:17:05;20.00;15.50;9.00
79038;PMS5003;68436;55.068;73.284;2024-01-10T06:19:31;12.50;10.25;6.75
79038;PMS5003;68436;55.068;73.284;2024-01-10T06:22:05;19.33;15.33;8.67
79038;PMS5003;68436;55.068;73.284;2024-01-10T06:24:31;10.50;8.00;5.00
79038;PMS5003;68436;55.068;73.284;2024-01-10T06:27:05;19.33;16.00;9.00
79038;PMS5003;68436;55.068;73.284;2024-01-10T06:29:35;13.75;10.50;6.50
79038;PMS5003;68436;55.068;73.284;2024-01-10T06:32:05;22.00;18.00;11.00
79038;PMS5003;68436;55.068;73.284;2024-01-10T06:34:32;22.00;19.00;11.00
79038;PMS5003;68436;55.068;73.284;2024-01-10T06:37:05;18.50;14.50;7.50
79038;PMS5003;68436;55.068;73.284;2024-01-10T06:39:33;18.00;15.00;9.75
79038;PMS5003;68436;55.068;73.284;2024-01-10T06:42:05;15.00;12.00;8.00
79038;PMS5003;68436;55.068;73.284;2024-01-10T06:44:36;18.50;14.50;8.75
79038;PMS5003;68436;55.068;73.284;2024-01-10T06:47:05;18.50;15.00;8.00
79038;PMS5003;68436;55.068;73.284;2024-01-10T06:49:31;14.00;12.00;7.00
79038;PMS5003;68436;55.068;73.284;2024-01-10T06:52:05;23.00;19.00;12.00
79038;PMS5003;68436;55.068;73.284;2024-01-10T06:54:33;15.00;12.00;7.50
79038;PMS5003;68436;55.068;73.284;2024-01-10T06:57:05;13.50;11.00;7.00
79038;PMS5003;68436;55.068;73.284;2024-01-10T06:59:31;20.00;16.00;8.25
79038;PMS5003;68436;55.068;73.284;2024-01-10T07:02:05;15.00;12.00;5.33
79038;PMS5003;68436;55.068;73.284;2024-01-10T07:04:31;18.00;15.00;9.00
79038;PMS5003;68436;55.068;73.284;2024-01-10T07:07:05;18.00;14.00;8.33
79038;PMS5003;68436;55.068;73.284;2024-01-10T07:09:34;22.00;16.00;8.25
79038;PMS5003;68436;55.068;73.284;2024-01-10T07:12:05;19.00;15.00;8.00
79038;PMS5003;68436;55.068;73.284;2024-01-10T07:14:32;15.50;12.75;8.00
79038;PMS5003;68436;55.068;73.284;2024-01-10T07:17:07;18.00;15.67;9.00
79038;PMS5003;68436;55.068;73.284;2024-01-10T07:19:33;19.00;15.00;9.00
79038;PMS5003;68436;55.068;73.284;2024-01-10T07:22:05;17.00;14.00;9.00
79038;PMS5003;68436;55.068;73.284;2024-01-10T07:24:31;15.00;12.75;7.50
79038;PMS5003;68436;55.068;73.284;2024-01-10T07:27:05;19.00;15.00;9.00
79038;PMS5003;68436;55.068;73.284;2024-01-10T07:29:33;15.75;14.00;8.00
79038;PMS5003;68436;55.068;73.284;2024-01-10T07:32:05;22.00;16.00;9.00
79038;PMS5003;68436;55.068;73.284;2024-01-10T07:34:31;18.25;15.00;9.00
79038;PMS5003;68436;55.068;73.284;2024-01-10T07:37:05;10.33;9.00;6.00
79038;PMS5003;68436;55.068;73.284;2024-01-10T07:39:31;13.00;11.75;7.00
79038;PMS5003;68436;55.068;73.284;2024-01-10T07:42:05;21.67;16.33;9.00
79038;PMS5003;68436;55.068;73.284;2024-01-10T07:44:32;14.00;12.00;7.00
79038;PMS5003;68436;55.068;73.284;2024-01-10T07:47:05;19.00;15.67;9.00
79038;PMS5003;68436;55.068;73.284;2024-01-10T07:49:33;17.00;14.00;8.75
79038;PMS5003;68436;55.068;73.284;2024-01-10T07:52:05;8.00;7.00;4.00
79038;PMS5003;68436;55.068;73.284;2024-01-10T07:54:31;12.50;10.00;5.25
79038;PMS5003;68436;55.068;73.284;2024-01-10T07:57:05;15.33;12.33;7.00
79038;PMS5003;68436;55.068;73.284;2024-01-10T07:59:38;17.00;14.00;8.00
79038;PMS5003;68436;55.068;73.284;2024-01-10T08:02:05;24.00;15.00;9.00
79038;PMS5003;68436;55.068;73.284;2024-01-10T08:04:31;15.00;13.00;8.00
79038;PMS5003;68436;55.068;73.284;2024-01-10T08:07:05;22.00;17.33;10.00
79038;PMS5003;68436;55.068;73.284;2024-01-10T08:09:31;15.25;11.25;5.75
79038;PMS5003;68436;55.068;73.284;2024-01-10T08:12:05;15.00;11.33;7.67
79038;PMS5003;68436;55.068;73.284;2024-01-10T08:14:31;17.00;13.25;8.50
79038;PMS5003;68436;55.068;73.284;2024-01-10T08:17:05;11.33;8.67;4.33
79038;PMS5003;68436;55.068;73.284;2024-01-10T08:19:32;19.00;15.00;8.00
79038;PMS5003;68436;55.068;73.284;2024-01-10T08:22:05;10.00;9.00;4.33
79038;PMS5003;68436;55.068;73.284;2024-01-10T08:24:32;13.00;10.00;6.00
79038;PMS5003;68436;55.068;73.284;2024-01-10T08:27:05;13.50;11.50;7.00
79038;PMS5003;68436;55.068;73.284;2024-01-10T08:29:31;14.00;12.00;7.00
79038;PMS5003;68436;55.068;73.284;2024-01-10T08:32:05;11.00;10.00;6.00
79038;PMS5003;68436;55.068;73.284;2024-01-10T08:34:31;12.50;10.50;6.00
79038;PMS5003;68436;55.068;73.284;2024-01-10T08:37:05;14.67;11.67;6.67
79038;PMS5003;68436;55.068;73.284;2024-01-10T08:39:31;17.00;12.00;7.00
79038;PMS5003;68436;55.068;73.284;2024-01-10T08:42:05;14.00;12.00;6.00
79038;PMS5003;68436;55.068;73.284;2024-01-10T08:44:31;14.00;12.50;7.25
79038;PMS5003;68436;55.068;73.284;2024-01-10T08:47:05;19.33;15.33;9.00
79038;PMS5003;68436;55.068;73.284;2024-01-10T08:49:31;16.00;13.00;8.00
79038;PMS5003;68436;55.068;73.284;2024-01-10T08:52:05;15.00;13.00;7.00
79038;PMS5003;68436;55.068;73.284;2024-01-10T08:54:31;15.50;12.75;7.75
79038;PMS5003;68436;55.068;73.284;2024-01-10T08:57:05;17.00;14.00;6.00
79038;PMS5003;68436;55.068;73.284;2024-01-10T08:59:31;14.25;11.00;7.00
79038;PMS5003;68436;55.068;73.284;2024-01-10T09:02:05;17.00;13.00;9.00
79038;PMS5003;68436;55.068;73.284;2024-01-10T09:04:33;19.00;14.75;8.00
79038;PMS5003;68436;55.068;73.284;2024-01-10T09:07:06;17.00;12.00;6.00
79038;PMS5003;68436;55.068;73.284;2024-01-10T09:09:32;16.75;13.00;6.50
79038;PMS5003;68436;55.068;73.284;2024-01-10T09:12:05;22.00;18.00;11.00
79038;PMS5003;68436;55.068;73.284;2024-01-10T09:14:31;19.00;14.00;9.00
79038;PMS5003;68436;55.068;73.284;2024-01-10T09:17:05;20.67;17.00;9.00
79038;PMS5003;68436;55.068;73.284;2024-01-10T09:19:31;16.00;13.00;6.75
79038;PMS5003;68436;55.068;73.284;2024-01-10T09:22:05;15.00;12.00;6.00
79038;PMS5003;68436;55.068;73.284;2024-01-10T09:24:31;20.25;15.00;8.50
79038;PMS5003;68436;55.068;73.284;2024-01-10T09:27:05;19.00;14.67;8.00
79038;PMS5003;68436;55.068;73.284;2024-01-10T09:29:32;19.00;15.00;9.00
79038;PMS5003;68436;55.068;73.284;2024-01-10T09:32:05;16.00;13.00;8.50
79038;PMS5003;68436;55.068;73.284;2024-01-10T09:34:31;19.25;15.75;8.50
79038;PMS5003;68436;55.068;73.284;2024-01-10T09:37:05;18.00;14.67;8.67
79038;PMS5003;68436;55.068;73.284;2024-01-10T09:39:31;16.25;12.50;7.00
79038;PMS5003;68436;55.068;73.284;2024-01-10T09:42:05;27.00;19.33;10.00
79038;PMS5003;68436;55.068;73.284;2024-01-10T09:44:32;20.50;16.00;9.50
79038;PMS5003;68436;55.068;73.284;2024-01-10T09:47:05;21.50;17.00;10.00
79038;PMS5003;68436;55.068;73.284;2024-01-10T09:49:31;23.00;18.00;11.00
79038;PMS5003;68436;55.068;73.284;2024-01-10T09:52:05;21.00;17.00;10.00
79038;PMS5003;68436;55.068;73.284;2024-01-10T09:54:36;23.50;19.75;13.00
79038;PMS5003;68436;55.068;73.284;2024-01-10T09:57:05;20.50;18.00;12.00
79038;PMS5003;68436;55.068;73.284;2024-01-10T09:59:31;22.75;17.50;11.50
79038;PMS5003;68436;55.068;73.284;2024-01-10T10:02:05;23.00;19.00;11.67
79038;PMS5003;68436;55.068;73.284;2024-01-10T10:04:31;22.25;18.00;11.00
79038;PMS5003;68436;55.068;73.284;2024-01-10T10:07:05;23.00;18.33;11.00
79038;PMS5003;68436;55.068;73.284;2024-01-10T10:09:31;29.50;21.50;14.00
79038;PMS5003;68436;55.068;73.284;2024-01-10T10:12:05;22.00;18.00;11.00
79038;PMS5003;68436;55.068;73.284;2024-01-10T10:14:31;24.50;19.00;12.75
79038;PMS5003;68436;55.068;73.284;2024-01-10T10:17:14;23.00;19.00;11.00
79038;PMS5003;68436;55.068;73.284;2024-01-10T10:19:41;25.00;20.00;11.00
79038;PMS5003;68436;55.068;73.284;2024-01-10T10:22:10;23.00;20.50;12.50
79038;PMS5003;68436;55.068;73.284;2024-01-10T10:24:36;23.00;17.00;11.00
79038;PMS5003;68436;55.068;73.284;2024-01-10T10:27:08;22.00;18.00;12.00
79038;PMS5003;68436;55.068;73.284;2024-01-10T10:29:37;21.00;17.50;11.00
79038;PMS5003;68436;55.068;73.284;2024-01-10T10:32:05;49.00;38.00;23.00
79038;PMS5003;68436;55.068;73.284;2024-01-10T10:34:31;100.50;79.00;41.50
79038;PMS5003;68436;55.068;73.284;2024-01-10T10:37:05;38.00;31.00;18.00
79038;PMS5003;68436;55.068;73.284;2024-01-10T10:39:31;47.25;36.75;22.50
79038;PMS5003;68436;55.068;73.284;2024-01-10T10:42:05;45.00;35.00;23.00
79038;PMS5003;68436;55.068;73.284;2024-01-10T10:44:32;48.25;37.00;24.00
79038;PMS5003;68436;55.068;73.284;2024-01-10T10:47:05;45.00;34.00;20.00
79038;PMS5003;68436;55.068;73.284;2024-01-10T10:49:36;50.00;39.00;23.75
79038;PMS5003;68436;55.068;73.284;2024-01-10T10:52:09;83.00;68.60;42.40
79038;PMS5003;68436;55.068;73.284;2024-01-10T10:54:35;37.75;30.00;17.50
79038;PMS5003;68436;55.068;73.284;2024-01-10T10:57:05;47.50;36.50;22.00
79038;PMS5003;68436;55.068;73.284;2024-01-10T10:59:31;36.00;27.50;16.50
79038;PMS5003;68436;55.068;73.284;2024-01-10T11:02:05;47.00;36.00;22.00
79038;PMS5003;68436;55.068;73.284;2024-01-10T11:04:34;68.00;52.00;32.00
79038;PMS5003;68436;55.068;73.284;2024-01-10T11:07:05;31.50;26.00;17.00
79038;PMS5003;68436;55.068;73.284;2024-01-10T11:09:31;32.00;25.50;15.50
79038;PMS5003;68436;55.068;73.284;2024-01-10T11:12:13;44.50;32.00;19.00
79038;PMS5003;68436;55.068;73.284;2024-01-10T11:17:26;37.33;30.00;18.33
79038;PMS5003;68436;55.068;73.284;2024-01-10T11:24:58;35.25;30.00;19.00
79038;PMS5003;68436;55.068;73.284;2024-01-10T11:27:25;29.67;22.33;14.00
79038;PMS5003;68436;55.068;73.284;2024-01-10T11:29:52;22.00;18.00;12.00
79038;PMS5003;68436;55.068;73.284;2024-01-10T11:32:22;19.00;17.00;12.75
79038;PMS5003;68436;55.068;73.284;2024-01-10T11:34:58;25.75;21.50;14.50
79038;PMS5003;68436;55.068;73.284;2024-01-10T11:37:41;22.00;19.00;12.00
79038;PMS5003;68436;55.068;73.284;2024-01-10T11:40:08;35.00;26.50;17.50
79038;PMS5003;68436;55.068;73.284;2024-01-10T11:42:44;18.00;14.00;8.33
79038;PMS5003;68436;55.068;73.284;2024-01-10T11:47:56;19.00;15.00;8.00
79038;PMS5003;68436;55.068;73.284;2024-01-10T11:50:22;28.00;22.00;13.00
79038;PMS5003;68436;55.068;73.284;2024-01-10T11:52:52;22.00;18.00;9.00
79038;PMS5003;68436;55.068;73.284;2024-01-10T11:58:10;21.00;18.00;11.33
79038;PMS5003;68436;55.068;73.284;2024-01-10T12:00:36;28.00;22.50;12.00
79038;PMS5003;68436;55.068;73.284;2024-01-10T12:03:03;31.33;25.33;16.00
79038;PMS5003;68436;55.068;73.284;2024-01-10T12:05:29;17.75;14.00;9.00
79038;PMS5003;68436;55.068;73.284;2024-01-10T12:08:15;29.33;22.67;14.00
79038;PMS5003;68436;55.068;73.284;2024-01-10T12:11:01;27.00;23.00;15.75
79038;PMS5003;68436;55.068;73.284;2024-01-10T12:13:27;23.50;18.00;11.75
79038;PMS5003;68436;55.068;73.284;2024-01-10T12:15:53;17.00;15.00;10.00
79038;PMS5003;68436;55.068;73.284;2024-01-10T12:18:19;25.00;21.67;13.00
79038;PMS5003;68436;55.068;73.284;2024-01-10T12:20:46;20.00;16.25;8.75
79038;PMS5003;68436;55.068;73.284;2024-01-10T12:23:22;20.00;16.00;10.00
79038;PMS5003;68436;55.068;73.284;2024-01-10T12:26:01;16.00;13.00;7.00
79038;PMS5003;68436;55.068;73.284;2024-01-10T12:29:04;18.00;15.00;11.00
79038;PMS5003;68436;55.068;73.284;2024-01-10T12:31:32;12.50;10.25;6.25
79038;PMS5003;68436;55.068;73.284;2024-01-10T12:34:01;13.67;11.00;6.00
79038;PMS5003;68436;55.068;73.284;2024-01-10T12:36:44;13.25;10.00;5.25
79038;PMS5003;68436;55.068;73.284;2024-01-10T12:39:22;14.50;11.00;6.00
79038;PMS5003;68436;55.068;73.284;2024-01-10T12:41:49;9.50;8.00;5.00
79038;PMS5003;68436;55.068;73.284;2024-01-10T12:44:16;9.00;7.25;4.00
79038;PMS5003;68436;55.068;73.284;2024-01-10T12:46:51;13.50;10.00;5.50
79038;PMS5003;68436;55.068;73.284;2024-01-10T12:49:33;13.00;11.00;7.50
79038;PMS5003;68436;55.068;73.284;2024-01-10T12:52:05;17.00;14.00;8.00
79038;PMS5003;68436;55.068;73.284;2024-01-10T12:54:31;12.00;10.00;6.00
79038;PMS5003;68436;55.068;73.284;2024-01-10T12:57:05;18.33;14.00;9.00
79038;PMS5003;68436;55.068;73.284;2024-01-10T12:59:32;23.25;19.25;12.00
79038;PMS5003;68436;55.068;73.284;2024-01-10T13:02:05;14.00;12.00;6.00
79038;PMS5003;68436;55.068;73.284;2024-01-10T13:04:31;18.50;15.50;10.75
79038;PMS5003;68436;55.068;73.284;2024-01-10T13:07:17;19.75;16.50;9.00
79038;PMS5003;68436;55.068;73.284;2024-01-10T13:10:03;28.25;23.50;14.50
79038;PMS5003;68436;55.068;73.284;2024-01-10T13:12:29;36.00;27.00;16.00
79038;PMS5003;68436;55.068;73.284;2024-01-10T13:14:55;12.00;9.25;5.00
79038;PMS5003;68436;55.068;73.284;2024-01-10T13:17:30;22.25;18.75;11.75
79038;PMS5003;68436;55.068;73.284;2024-01-10T13:19:56;22.25;17.50;10.75
79038;PMS5003;68436;55.068;73.284;2024-01-10T13:22:23;15.00;12.33;7.67
79038;PMS5003;68436;55.068;73.284;2024-01-10T13:24:49;15.75;11.00;7.00
79038;PMS5003;68436;55.068;73.284;2024-01-10T13:27:35;15.67;13.67;10.00
79038;PMS5003;68436;55.068;73.284;2024-01-10T13:30:01;15.25;12.75;6.25
79038;PMS5003;68436;55.068;73.284;2024-01-10T13:32:27;12.00;10.00;6.33
79038;PMS5003;68436;55.068;73.284;2024-01-10T13:35:05;15.00;13.00;8.00
79038;PMS5003;68436;55.068;73.284;2024-01-10T13:37:32;11.00;9.00;4.67
79038;PMS5003;68436;55.068;73.284;2024-01-10T13:39:58;13.25;11.00;7.00
79038;PMS5003;68436;55.068;73.284;2024-01-10T13:42:42;12.00;10.00;6.00
79038;PMS5003;68436;55.068;73.284;2024-01-10T13:45:09;14.75;11.25;7.00
79038;PMS5003;68436;55.068;73.284;2024-01-10T13:47:38;9.33;8.00;4.00
79038;PMS5003;68436;55.068;73.284;2024-01-10T13:50:05;9.75;7.75;4.00
79038;PMS5003;68436;55.068;73.284;2024-01-10T13:52:34;13.00;10.00;5.33
79038;PMS5003;68436;55.068;73.284;2024-01-10T13:55:00;17.50;11.75;7.00
79038;PMS5003;68436;55.068;73.284;2024-01-10T13:57:26;12.00;9.75;6.00
79038;PMS5003;68436;55.068;73.284;2024-01-10T13:59:52;7.25;6.25;3.25
79038;PMS5003;68436;55.068;73.284;2024-01-10T14:02:36;11.00;9.00;5.00
79038;PMS5003;68436;55.068;73.284;2024-01-10T14:05:02;10.00;8.25;4.25
79038;PMS5003;68436;55.068;73.284;2024-01-10T14:07:32;11.00;8.33;5.67
79038;PMS5003;68436;55.068;73.284;2024-01-10T14:09:58;11.00;9.00;5.75
79038;PMS5003;68436;55.068;73.284;2024-01-10T14:12:24;7.00;5.67;4.00